createdAt,value
2023-03-03T00:01:13.210Z,75.44
2023-03-03T00:03:40.336Z,75.44
2023-03-03T00:06:10.816Z,75.37
2023-03-03T00:08:37.498Z,75.58
2023-03-03T00:11:06.189Z,75.41
2023-03-03T00:13:33.829Z,77.22
2023-03-03T00:16:14.702Z,75.18
2023-03-03T00:18:44.702Z,76.87
2023-03-03T00:21:29.813Z,78.57
2023-03-03T00:24:05.262Z,77.58
2023-03-03T00:26:36.599Z,75.21
2023-03-03T00:29:24.644Z,74.94
2023-03-03T00:31:51.122Z,73.96
2023-03-03T00:34:17.546Z,74.77
2023-03-03T00:36:44.640Z,74.87
2023-03-03T00:39:18.793Z,75.34
2023-03-03T00:41:45.600Z,76.84
2023-03-03T00:44:25.751Z,76.13
2023-03-03T00:46:54.081Z,75.66
2023-03-03T00:49:26.127Z,76.78
2023-03-03T00:51:53.816Z,77.33
2023-03-03T00:54:20.440Z,75.82
2023-03-03T00:56:46.891Z,75.78
2023-03-03T00:59:13.356Z,76.80
2023-03-03T01:01:39.801Z,76.22
2023-03-03T01:04:06.283Z,76.67
2023-03-03T01:06:32.844Z,76.87
2023-03-03T01:08:59.435Z,75.78
2023-03-03T01:11:28.611Z,76.70
2023-03-03T01:13:55.168Z,75.80
2023-03-03T01:16:21.807Z,76.70
2023-03-03T01:18:48.308Z,76.50
2023-03-03T01:21:14.828Z,76.67
2023-03-03T01:23:41.435Z,75.99
2023-03-03T01:26:08.005Z,75.54
2023-03-03T01:28:34.786Z,74.99
2023-03-03T01:31:06.249Z,76.45
2023-03-03T01:33:34.026Z,76.37
2023-03-03T01:36:00.733Z,75.83
2023-03-03T01:38:27.617Z,75.70
2023-03-03T01:40:58.838Z,75.05
2023-03-03T01:43:31.038Z,75.43
2023-03-03T01:45:57.546Z,76.28
2023-03-03T01:48:36.930Z,76.67
2023-03-03T01:51:07.745Z,75.92
2023-03-03T01:53:42.784Z,75.33
2023-03-03T01:56:10.159Z,74.88
2023-03-03T01:58:47.335Z,75.35
2023-03-03T02:01:22.549Z,76.55
2023-03-03T02:03:49.578Z,75.43
2023-03-03T02:06:18.729Z,75.50
2023-03-03T02:09:04.240Z,74.86
2023-03-03T02:11:33.226Z,75.24
2023-03-03T02:13:59.718Z,74.91
2023-03-03T02:16:26.525Z,75.54
2023-03-03T02:18:53.011Z,75.28
2023-03-03T02:21:22.004Z,74.94
2023-03-03T02:24:23.866Z,75.65
2023-03-03T02:26:50.418Z,74.97
2023-03-03T02:29:17.142Z,75.56
2023-03-03T02:31:44.080Z,75.86
2023-03-03T02:34:10.886Z,76.24
2023-03-03T02:36:39.226Z,74.99
2023-03-03T02:39:11.798Z,75.41
2023-03-03T02:41:56.873Z,75.58
2023-03-03T02:44:25.480Z,74.81
2023-03-03T02:46:53.261Z,76.32
2023-03-03T02:49:24.579Z,77.28
2023-03-03T02:51:51.528Z,76.64
2023-03-03T02:54:19.709Z,76.79
2023-03-03T02:56:46.560Z,76.15
2023-03-03T02:59:13.087Z,76.00
2023-03-03T03:01:39.771Z,75.31
2023-03-03T03:04:09.597Z,73.84
2023-03-03T03:06:36.984Z,75.50
2023-03-03T03:09:05.089Z,74.94
2023-03-03T03:11:31.784Z,74.88
2023-03-03T03:13:58.226Z,73.54
2023-03-03T03:16:24.735Z,73.50
2023-03-03T03:18:51.296Z,73.72
2023-03-03T03:21:17.968Z,74.83
2023-03-03T03:23:44.682Z,73.69
2023-03-03T03:26:11.666Z,73.33
2023-03-03T03:28:38.435Z,73.46
2023-03-03T03:31:06.035Z,75.16
2023-03-03T03:33:32.607Z,74.29
2023-03-03T03:36:00.008Z,75.57
2023-03-03T03:38:27.278Z,74.28
2023-03-03T03:40:54.464Z,74.60
2023-03-03T03:43:21.004Z,74.83
2023-03-03T03:45:47.588Z,74.53
2023-03-03T03:48:14.405Z,74.98
2023-03-03T03:50:40.864Z,73.48
2023-03-03T03:53:07.694Z,73.09
2023-03-03T03:55:34.289Z,74.74
2023-03-03T03:58:00.771Z,74.06
2023-03-03T04:00:27.284Z,74.08
2023-03-03T04:02:53.838Z,73.63
2023-03-03T04:05:21.216Z,73.14
2023-03-03T04:07:47.726Z,74.85
2023-03-03T04:10:14.222Z,73.37
2023-03-03T04:12:40.764Z,73.87
2023-03-03T04:15:10.908Z,74.28
2023-03-03T04:17:37.675Z,74.28
2023-03-03T04:20:04.984Z,74.61
2023-03-03T04:22:36.029Z,73.82
2023-03-03T04:25:06.206Z,73.00
2023-03-03T04:27:33.389Z,72.97
2023-03-03T04:30:00.121Z,74.13
2023-03-03T04:32:26.649Z,73.39
2023-03-03T04:35:05.748Z,74.18
2023-03-03T04:37:34.085Z,72.88
2023-03-03T04:40:00.751Z,72.76
2023-03-03T04:42:28.292Z,73.13
2023-03-03T04:44:54.891Z,73.23
2023-03-03T04:47:21.399Z,73.96
2023-03-03T04:49:47.837Z,74.69
2023-03-03T04:52:14.430Z,74.10
2023-03-03T04:54:40.871Z,74.21
2023-03-03T04:57:09.512Z,72.90
2023-03-03T04:59:36.384Z,73.49
2023-03-03T05:02:04.694Z,74.96
2023-03-03T05:04:31.336Z,75.94
2023-03-03T05:06:57.944Z,74.07
2023-03-03T05:09:24.479Z,74.23
2023-03-03T05:11:51.699Z,74.97
2023-03-03T05:14:18.556Z,74.42
2023-03-03T05:16:45.223Z,75.77
2023-03-03T05:19:12.429Z,74.50
2023-03-03T05:21:42.479Z,75.95
2023-03-03T05:24:10.639Z,76.73
2023-03-03T05:26:37.247Z,75.65
2023-03-03T05:29:04.166Z,73.93
2023-03-03T05:31:30.669Z,75.71
2023-03-03T05:33:57.235Z,75.17
2023-03-03T05:36:23.810Z,73.93
2023-03-03T05:38:50.455Z,74.07
2023-03-03T05:41:16.964Z,73.59
2023-03-03T05:43:43.746Z,73.85
2023-03-03T05:46:10.485Z,73.16
2023-03-03T05:48:36.978Z,73.15
2023-03-03T05:51:03.591Z,72.52
2023-03-03T05:53:30.207Z,72.92
2023-03-03T05:55:56.710Z,73.54
2023-03-03T05:58:23.380Z,73.05
2023-03-03T06:00:49.833Z,73.81
2023-03-03T06:03:17.122Z,74.31
2023-03-03T06:05:43.796Z,73.70
2023-03-03T06:08:10.294Z,73.96
2023-03-03T06:10:36.759Z,74.43
2023-03-03T06:13:03.296Z,73.88
2023-03-03T06:15:29.807Z,74.49
2023-03-03T06:17:56.317Z,74.55
2023-03-03T06:20:22.805Z,74.01
2023-03-03T06:22:49.310Z,73.92
2023-03-03T06:25:15.904Z,73.95
2023-03-03T06:27:42.443Z,73.99
2023-03-03T06:30:09.532Z,74.48
2023-03-03T06:32:36.061Z,74.47
2023-03-03T06:35:02.539Z,75.22
2023-03-03T06:37:29.436Z,75.46
2023-03-03T06:39:55.875Z,75.83
2023-03-03T06:42:24.935Z,76.19
2023-03-03T06:44:51.477Z,75.48
2023-03-03T06:47:18.042Z,75.57
2023-03-03T06:49:44.481Z,75.34
2023-03-03T06:52:31.195Z,76.64
2023-03-03T06:54:59.395Z,75.60
2023-03-03T06:57:31.214Z,75.95
2023-03-03T07:00:12.325Z,75.69
2023-03-03T07:02:38.787Z,75.10
2023-03-03T07:05:07.718Z,74.94
2023-03-03T07:07:34.168Z,74.81
2023-03-03T07:10:00.608Z,76.25
2023-03-03T07:12:29.840Z,75.19
2023-03-03T07:15:24.264Z,76.22
2023-03-03T07:17:55.616Z,76.24
2023-03-03T07:20:35.134Z,77.03
2023-03-03T07:23:28.966Z,75.62
2023-03-03T07:25:55.597Z,75.93
2023-03-03T07:28:22.047Z,76.71
2023-03-03T07:30:48.928Z,75.65
2023-03-03T07:33:36.214Z,76.46
2023-03-03T07:36:04.042Z,76.31
2023-03-03T07:38:47.092Z,76.68
2023-03-03T07:41:25.688Z,75.88
2023-03-03T07:44:12.638Z,75.70
2023-03-03T07:46:44.584Z,75.51
2023-03-03T07:49:24.273Z,76.48
2023-03-03T07:51:58.343Z,76.44
2023-03-03T07:54:32.258Z,76.61
2023-03-03T07:57:12.274Z,76.53
2023-03-03T07:59:48.811Z,76.14
2023-03-03T08:02:30.835Z,76.88
2023-03-03T08:04:57.415Z,77.42
2023-03-03T08:07:23.958Z,78.96
2023-03-03T08:10:00.535Z,78.35
2023-03-03T08:12:35.454Z,77.39
2023-03-03T08:15:23.313Z,77.45
2023-03-03T08:17:51.067Z,77.03
2023-03-03T08:20:44.612Z,79.11
2023-03-03T08:23:12.723Z,77.16
2023-03-03T08:25:39.747Z,77.71
2023-03-03T08:28:06.425Z,78.72
2023-03-03T08:30:32.880Z,77.47
2023-03-03T08:32:59.415Z,78.22
2023-03-03T08:35:27.600Z,78.09
2023-03-03T08:37:54.137Z,77.76
2023-03-03T08:40:20.649Z,78.43
2023-03-03T08:42:47.598Z,78.36
2023-03-03T08:45:14.223Z,78.48
2023-03-03T08:47:40.690Z,78.51
2023-03-03T08:50:07.391Z,79.21
2023-03-03T08:52:34.402Z,78.14
2023-03-03T08:55:08.835Z,77.51
2023-03-03T08:57:42.395Z,79.32
2023-03-03T09:00:13.630Z,78.49
2023-03-03T09:02:40.614Z,77.76
2023-03-03T09:05:07.993Z,77.90
2023-03-03T09:07:35.163Z,78.50
2023-03-03T09:10:01.907Z,78.69
2023-03-03T09:12:36.564Z,77.01
2023-03-03T09:15:17.273Z,78.23
2023-03-03T09:17:44.477Z,77.84
2023-03-03T09:20:19.978Z,77.99
2023-03-03T09:22:46.431Z,78.71
2023-03-03T09:25:23.352Z,79.58
2023-03-03T09:27:53.415Z,78.45
2023-03-03T09:30:25.973Z,78.98
2023-03-03T09:32:53.173Z,78.56
2023-03-03T09:35:36.556Z,78.12
2023-03-03T09:38:14.376Z,79.91
2023-03-03T09:41:00.713Z,79.65
2023-03-03T09:43:37.594Z,78.32
2023-03-03T09:46:07.150Z,78.21
2023-03-03T09:48:39.604Z,79.97
2023-03-03T09:51:27.817Z,78.60
2023-03-03T09:54:33.906Z,78.16
2023-03-03T09:57:41.803Z,79.14
2023-03-03T10:00:26.631Z,78.63
2023-03-03T10:03:01.715Z,79.23
2023-03-03T10:06:13.394Z,78.75
2023-03-03T10:08:46.291Z,79.59
2023-03-03T10:11:45.374Z,80.61
2023-03-03T10:14:38.425Z,80.40
2023-03-03T10:17:20.889Z,81.04
2023-03-03T10:20:05.579Z,80.94
2023-03-03T10:22:48.804Z,79.78
2023-03-03T10:25:42.310Z,80.76
2023-03-03T10:28:43.549Z,81.38
2023-03-03T10:31:20.797Z,78.66
2023-03-03T10:34:13.470Z,79.41
2023-03-03T10:36:58.157Z,79.79
2023-03-03T10:39:49.713Z,79.66
2023-03-03T10:42:35.099Z,78.02
2023-03-03T10:45:36.042Z,78.00
2023-03-03T10:48:41.370Z,78.17
2023-03-03T10:51:07.877Z,78.67
2023-03-03T10:53:41.457Z,79.70
2023-03-03T10:56:26.197Z,78.90
2023-03-03T10:59:13.567Z,77.36
2023-03-03T11:02:01.168Z,77.23
2023-03-03T11:04:50.818Z,78.24
2023-03-03T11:07:17.281Z,78.69
2023-03-03T11:09:43.735Z,79.62
2023-03-03T11:12:30.495Z,79.10
2023-03-03T11:15:29.262Z,78.02
2023-03-03T11:18:02.390Z,78.02
2023-03-03T11:20:28.924Z,77.92
2023-03-03T11:23:00.086Z,78.13
2023-03-03T11:25:40.593Z,78.89
2023-03-03T11:28:54.955Z,78.80
2023-03-03T11:31:32.269Z,78.81
2023-03-03T11:34:07.688Z,78.49
2023-03-03T11:36:35.346Z,78.59
2023-03-03T11:39:13.764Z,77.75
2023-03-03T11:41:54.483Z,77.33
2023-03-03T11:44:30.039Z,76.91
2023-03-03T11:46:58.791Z,77.23
2023-03-03T11:49:37.626Z,75.64
2023-03-03T11:52:16.289Z,76.10
2023-03-03T11:55:00.031Z,77.74
2023-03-03T11:57:36.213Z,76.19
2023-03-03T12:00:27.611Z,75.19
2023-03-03T12:03:12.830Z,76.04
2023-03-03T12:05:46.820Z,74.81
2023-03-03T12:08:54.187Z,75.21
2023-03-03T12:11:44.482Z,74.50
2023-03-03T12:14:33.106Z,74.65
2023-03-03T12:17:30.036Z,74.05
2023-03-03T12:20:15.155Z,75.24
2023-03-03T12:23:06.488Z,73.54
2023-03-03T12:25:38.523Z,74.75
2023-03-03T12:28:26.100Z,74.06
2023-03-03T12:31:35.526Z,75.29
2023-03-03T12:34:33.094Z,74.11
2023-03-03T12:37:13.797Z,72.14
2023-03-03T12:40:17.766Z,71.71
2023-03-03T12:42:44.410Z,70.19
2023-03-03T12:45:24.274Z,68.66
2023-03-03T12:47:54.740Z,70.07
2023-03-03T12:50:31.427Z,69.36
2023-03-03T12:53:09.876Z,70.48
2023-03-03T12:55:53.895Z,67.63
2023-03-03T12:58:42.199Z,69.04
2023-03-03T13:01:28.469Z,68.13
2023-03-03T13:04:10.570Z,68.00
2023-03-03T13:06:47.103Z,68.59
2023-03-03T13:09:22.652Z,66.45
2023-03-03T13:11:55.138Z,65.31
2023-03-03T13:14:46.970Z,66.68
2023-03-03T13:17:25.578Z,65.96
2023-03-03T13:20:03.782Z,65.30
2023-03-03T13:23:11.142Z,64.93
2023-03-03T13:25:44.454Z,66.54
2023-03-03T13:28:41.447Z,66.43
2023-03-03T13:31:10.969Z,64.91
2023-03-03T13:33:37.990Z,66.23
2023-03-03T13:36:09.546Z,65.77
2023-03-03T13:38:48.163Z,64.75
2023-03-03T13:41:32.351Z,63.20
2023-03-03T13:44:25.557Z,64.24
2023-03-03T13:47:12.559Z,63.02
2023-03-03T13:49:47.620Z,61.91
2023-03-03T13:52:27.310Z,63.73
2023-03-03T13:54:57.785Z,65.24
2023-03-03T13:57:42.206Z,63.90
2023-03-03T14:00:37.510Z,63.61
2023-03-03T14:03:15.477Z,64.60
2023-03-03T14:05:45.804Z,63.56
2023-03-03T14:08:27.783Z,64.44
2023-03-03T14:11:12.610Z,65.11
2023-03-03T14:13:57.468Z,65.95
2023-03-03T14:16:42.476Z,65.77
2023-03-03T14:19:15.011Z,64.12
2023-03-03T14:21:49.484Z,66.16
2023-03-03T14:24:21.104Z,64.29
2023-03-03T14:26:59.200Z,64.59
2023-03-03T14:29:28.821Z,65.96
2023-03-03T14:31:57.284Z,64.78
2023-03-03T14:34:23.774Z,64.20
2023-03-03T14:36:57.842Z,65.22
2023-03-03T14:39:38.896Z,63.72
2023-03-03T14:42:30.677Z,65.88
2023-03-03T14:44:59.283Z,65.65
2023-03-03T14:47:27.632Z,64.57
2023-03-03T14:49:55.820Z,66.77
2023-03-03T14:52:30.586Z,66.30
2023-03-03T14:55:00.391Z,64.82
2023-03-03T14:57:37.641Z,67.24
2023-03-03T15:00:13.790Z,67.99
2023-03-03T15:02:43.690Z,67.69
2023-03-03T15:05:17.879Z,66.88
2023-03-03T15:07:45.160Z,65.79
2023-03-03T15:10:13.472Z,65.71
2023-03-03T15:12:41.805Z,66.95
2023-03-03T15:15:19.038Z,66.26
2023-03-03T15:18:02.851Z,66.54
2023-03-03T15:21:05.227Z,68.78
2023-03-03T15:23:59.260Z,69.20
2023-03-03T15:26:44.027Z,68.69
2023-03-03T15:29:13.314Z,68.85
2023-03-03T15:32:04.294Z,67.85
2023-03-03T15:34:34.026Z,69.07
2023-03-03T15:37:45.066Z,67.94
2023-03-03T15:40:14.326Z,68.67
2023-03-03T15:42:56.496Z,67.18
2023-03-03T15:45:34.536Z,67.19
2023-03-03T15:48:34.434Z,67.32
2023-03-03T15:51:12.857Z,68.76
2023-03-03T15:53:48.572Z,70.41
2023-03-03T15:56:38.149Z,69.32
2023-03-03T15:59:34.406Z,68.87
2023-03-03T16:02:36.766Z,69.40
2023-03-03T16:05:15.227Z,69.17
2023-03-03T16:08:04.878Z,70.05
2023-03-03T16:11:10.539Z,70.55
2023-03-03T16:13:52.289Z,70.18
2023-03-03T16:17:13.210Z,70.21
2023-03-03T16:20:09.618Z,69.93
2023-03-03T16:23:13.179Z,69.44
2023-03-03T16:25:58.281Z,69.11
2023-03-03T16:28:24.670Z,68.42
2023-03-03T16:31:05.678Z,70.97
2023-03-03T16:33:49.450Z,69.65
2023-03-03T16:36:40.823Z,69.83
2023-03-03T16:39:16.142Z,68.98
2023-03-03T16:41:56.051Z,69.09
2023-03-03T16:44:47.620Z,69.48
2023-03-03T16:47:39.379Z,70.59
2023-03-03T16:50:27.581Z,69.86
2023-03-03T16:53:12.441Z,69.17
2023-03-03T16:56:00.568Z,69.54
2023-03-03T16:59:05.865Z,70.10
2023-03-03T17:01:42.429Z,67.07
2023-03-03T17:04:15.500Z,68.52
2023-03-03T17:06:53.655Z,69.31
2023-03-03T17:09:42.508Z,70.02
2023-03-03T17:12:23.704Z,70.92
2023-03-03T17:15:13.747Z,69.82
2023-03-03T17:17:58.414Z,69.62
2023-03-03T17:20:43.271Z,70.43
2023-03-03T17:23:40.541Z,70.65
2023-03-03T17:26:29.031Z,69.76
2023-03-03T17:29:20.042Z,71.92
2023-03-03T17:31:55.480Z,70.51
2023-03-03T17:34:40.616Z,72.81
2023-03-03T17:37:23.870Z,72.25
2023-03-03T17:40:13.210Z,73.77
2023-03-03T17:42:54.908Z,72.01
2023-03-03T17:45:22.138Z,73.05
2023-03-03T17:47:57.764Z,72.70
2023-03-03T17:50:42.447Z,72.07
2023-03-03T17:53:27.158Z,72.06
2023-03-03T17:56:03.003Z,74.18
2023-03-03T17:58:33.117Z,72.74
2023-03-03T18:01:02.248Z,73.41
2023-03-03T18:03:47.513Z,71.68
2023-03-03T18:06:23.915Z,73.22
2023-03-03T18:09:25.374Z,72.86
2023-03-03T18:12:03.860Z,72.00
2023-03-03T18:14:48.698Z,73.20
2023-03-03T18:17:46.461Z,72.59
2023-03-03T18:20:48.411Z,72.97
2023-03-03T18:23:28.783Z,73.87
2023-03-03T18:26:03.034Z,72.81
2023-03-03T18:28:51.458Z,73.41
2023-03-03T18:31:25.028Z,73.27
2023-03-03T18:34:05.306Z,73.77
2023-03-03T18:36:32.266Z,74.91
2023-03-03T18:39:01.086Z,74.29
2023-03-03T18:41:29.552Z,74.95
2023-03-03T18:44:04.681Z,73.66
2023-03-03T18:46:31.243Z,74.63
2023-03-03T18:49:04.665Z,75.40
2023-03-03T18:51:34.236Z,72.49
2023-03-03T18:54:26.327Z,74.95
2023-03-03T18:56:52.740Z,74.57
2023-03-03T18:59:40.071Z,76.12
2023-03-03T19:02:12.519Z,74.23
2023-03-03T19:04:44.696Z,74.76
2023-03-03T19:07:27.608Z,74.23
2023-03-03T19:09:57.637Z,75.23
2023-03-03T19:12:46.627Z,76.45
2023-03-03T19:15:31.604Z,76.60
2023-03-03T19:17:58.891Z,77.79
2023-03-03T19:20:26.973Z,77.51
2023-03-03T19:23:03.370Z,78.01
2023-03-03T19:25:31.895Z,79.78
2023-03-03T19:28:17.479Z,78.26
2023-03-03T19:31:04.864Z,80.39
2023-03-03T19:34:03.395Z,78.76
2023-03-03T19:36:44.960Z,79.78
2023-03-03T19:39:23.737Z,80.71
2023-03-03T19:41:50.148Z,80.18
2023-03-03T19:44:35.302Z,78.46
2023-03-03T19:47:04.971Z,81.95
2023-03-03T19:50:00.737Z,80.91
2023-03-03T19:52:52.168Z,80.64
2023-03-03T19:55:28.226Z,81.50
2023-03-03T19:58:02.588Z,81.12
2023-03-03T20:00:41.078Z,82.12
2023-03-03T20:03:25.330Z,82.65
2023-03-03T20:06:13.458Z,82.72
2023-03-03T20:08:46.467Z,81.27
2023-03-03T20:11:37.835Z,82.70
2023-03-03T20:14:19.558Z,84.04
2023-03-03T20:16:48.324Z,83.42
2023-03-03T20:19:17.733Z,83.56
2023-03-03T20:22:09.175Z,84.40
2023-03-03T20:24:58.560Z,84.30
2023-03-03T20:27:30.583Z,82.95
2023-03-03T20:30:21.709Z,83.67
2023-03-03T20:33:13.036Z,84.67
2023-03-03T20:36:07.778Z,83.21
2023-03-03T20:38:39.166Z,83.23
2023-03-03T20:41:05.688Z,85.09
2023-03-03T20:44:07.585Z,84.38
2023-03-03T20:46:42.125Z,83.19
2023-03-03T20:49:27.304Z,82.52
2023-03-03T20:51:53.746Z,83.48
2023-03-03T20:54:41.395Z,82.31
2023-03-03T20:57:33.761Z,82.40
2023-03-03T21:00:32.767Z,85.71
2023-03-03T21:03:30.702Z,82.89
2023-03-03T21:05:59.517Z,83.44
2023-03-03T21:08:48.731Z,86.03
2023-03-03T21:11:18.503Z,85.65
2023-03-03T21:13:47.617Z,83.82
2023-03-03T21:16:30.895Z,83.33
2023-03-03T21:19:03.724Z,84.06
2023-03-03T21:21:33.742Z,83.13
2023-03-03T21:24:00.309Z,83.71
2023-03-03T21:26:54.012Z,84.74
2023-03-03T21:29:33.900Z,82.89
2023-03-03T21:32:08.581Z,84.51
2023-03-03T21:34:37.734Z,82.20
2023-03-03T21:37:08.719Z,83.41
2023-03-03T21:39:44.334Z,84.62
2023-03-03T21:42:15.536Z,82.62
2023-03-03T21:44:49.538Z,83.59
2023-03-03T21:47:22.039Z,82.67
2023-03-03T21:49:50.489Z,82.34
2023-03-03T21:52:19.090Z,82.32
2023-03-03T21:54:46.499Z,80.18
2023-03-03T21:57:13.431Z,81.18
2023-03-03T21:59:40.258Z,79.23
2023-03-03T22:02:07.808Z,80.04
2023-03-03T22:04:35.105Z,81.55
2023-03-03T22:07:01.808Z,81.30
2023-03-03T22:09:28.261Z,80.14
2023-03-03T22:11:54.732Z,80.74
2023-03-03T22:14:21.214Z,81.58
2023-03-03T22:16:47.747Z,80.20
2023-03-03T22:19:14.266Z,80.25
2023-03-03T22:21:40.860Z,80.77
2023-03-03T22:24:07.847Z,79.40
2023-03-03T22:26:34.491Z,79.05
2023-03-03T22:29:01.006Z,79.41
2023-03-03T22:31:27.778Z,80.42
2023-03-03T22:33:54.279Z,79.41
2023-03-03T22:36:20.723Z,80.88
2023-03-03T22:38:47.559Z,80.02
2023-03-03T22:41:14.640Z,79.18
2023-03-03T22:43:42.024Z,80.13
2023-03-03T22:46:08.936Z,79.74
2023-03-03T22:48:35.947Z,79.15
2023-03-03T22:51:02.504Z,79.34
2023-03-03T22:53:28.988Z,79.99
2023-03-03T22:55:55.487Z,78.17
2023-03-03T22:58:25.378Z,78.63
2023-03-03T23:00:53.935Z,76.63
2023-03-03T23:03:21.027Z,77.32
2023-03-03T23:05:50.223Z,78.39
2023-03-03T23:08:18.727Z,77.15
2023-03-03T23:10:45.346Z,77.27
2023-03-03T23:13:13.250Z,76.74
2023-03-03T23:15:40.421Z,77.98
2023-03-03T23:18:07.070Z,78.30
2023-03-03T23:20:34.124Z,76.65
2023-03-03T23:23:00.784Z,77.92
2023-03-03T23:25:28.865Z,77.05
2023-03-03T23:27:56.132Z,77.82
2023-03-03T23:30:22.885Z,76.38
2023-03-03T23:32:49.554Z,76.26
2023-03-03T23:35:16.654Z,77.01
2023-03-03T23:37:43.321Z,75.78
2023-03-03T23:40:10.738Z,76.48
2023-03-03T23:42:37.217Z,76.36
2023-03-03T23:45:04.188Z,76.20
2023-03-03T23:47:30.670Z,75.12
2023-03-03T23:49:57.102Z,75.51
2023-03-03T23:52:23.695Z,76.09
2023-03-03T23:54:50.154Z,74.08
2023-03-03T23:57:16.624Z,73.68
2023-03-03T23:59:43.080Z,74.74
